sensor_id;sensor_type;location;lat;lon;timestamp;P1;durP1;ratioP1;P2;durP2;ratioP2
37311;SDS011;23197;53.912;9.138;2022-12-07T00:01:37;7.27;;;2.03;;
37311;SDS011;23197;53.912;9.138;2022-12-07T00:04:05;5.07;;;1.87;;
37311;SDS011;23197;53.912;9.138;2022-12-07T00:06:33;6.83;;;1.87;;
37311;SDS011;23197;53.912;9.138;2022-12-07T00:09:01;4.63;;;1.77;;
37311;SDS011;23197;53.912;9.138;2022-12-07T00:11:27;4.90;;;1.50;;
37311;SDS011;23197;53.912;9.138;2022-12-07T00:13:53;5.80;;;1.60;;
37311;SDS011;23197;53.912;9.138;2022-12-07T00:16:21;5.50;;;1.30;;
37311;SDS011;23197;53.912;9.138;2022-12-07T00:18:48;2.50;;;1.20;;
37311;SDS011;23197;53.912;9.138;2022-12-07T00:21:15;4.37;;;1.10;;
37311;SDS011;23197;53.912;9.138;2022-12-07T00:23:43;5.00;;;0.90;;
37311;SDS011;23197;53.912;9.138;2022-12-07T00:26:12;5.53;;;1.17;;
37311;SDS011;23197;53.912;9.138;2022-12-07T00:28:40;4.63;;;0.70;;
37311;SDS011;23197;53.912;9.138;2022-12-07T00:31:08;2.60;;;0.63;;
37311;SDS011;23197;53.912;9.138;2022-12-07T00:33:36;2.37;;;0.70;;
37311;SDS011;23197;53.912;9.138;2022-12-07T00:36:03;4.60;;;0.50;;
37311;SDS011;23197;53.912;9.138;2022-12-07T00:38:33;1.77;;;0.57;;
37311;SDS011;23197;53.912;9.138;2022-12-07T00:41:00;2.57;;;0.40;;
37311;SDS011;23197;53.912;9.138;2022-12-07T00:43:28;1.93;;;0.60;;
37311;SDS011;23197;53.912;9.138;2022-12-07T00:45:54;4.43;;;0.60;;
37311;SDS011;23197;53.912;9.138;2022-12-07T00:48:20;1.00;;;0.43;;
37311;SDS011;23197;53.912;9.138;2022-12-07T00:50:46;2.30;;;0.50;;
37311;SDS011;23197;53.912;9.138;2022-12-07T00:53:12;2.23;;;0.80;;
37311;SDS011;23197;53.912;9.138;2022-12-07T00:55:37;4.27;;;1.27;;
37311;SDS011;23197;53.912;9.138;2022-12-07T00:58:03;4.10;;;0.70;;
37311;SDS011;23197;53.912;9.138;2022-12-07T01:00:29;5.10;;;0.60;;
37311;SDS011;23197;53.912;9.138;2022-12-07T01:02:55;3.70;;;0.60;;
37311;SDS011;23197;53.912;9.138;2022-12-07T01:05:21;2.97;;;0.50;;
37311;SDS011;23197;53.912;9.138;2022-12-07T01:07:46;2.27;;;0.70;;
37311;SDS011;23197;53.912;9.138;2022-12-07T01:10:12;3.53;;;0.63;;
37311;SDS011;23197;53.912;9.138;2022-12-07T01:12:39;5.63;;;0.70;;
37311;SDS011;23197;53.912;9.138;2022-12-07T01:15:05;2.77;;;0.70;;
37311;SDS011;23197;53.912;9.138;2022-12-07T01:17:31;3.90;;;0.70;;
37311;SDS011;23197;53.912;9.138;2022-12-07T01:19:57;5.10;;;0.80;;
37311;SDS011;23197;53.912;9.138;2022-12-07T01:22:22;3.30;;;0.80;;
37311;SDS011;23197;53.912;9.138;2022-12-07T01:24:48;3.43;;;1.00;;
37311;SDS011;23197;53.912;9.138;2022-12-07T01:27:13;5.73;;;0.80;;
37311;SDS011;23197;53.912;9.138;2022-12-07T01:29:39;6.37;;;1.03;;
37311;SDS011;23197;53.912;9.138;2022-12-07T01:32:05;3.97;;;0.90;;
37311;SDS011;23197;53.912;9.138;2022-12-07T01:34:31;4.13;;;0.70;;
37311;SDS011;23197;53.912;9.138;2022-12-07T01:36:56;4.73;;;0.97;;
37311;SDS011;23197;53.912;9.138;2022-12-07T01:39:22;5.00;;;1.10;;
37311;SDS011;23197;53.912;9.138;2022-12-07T01:41:48;3.87;;;0.90;;
37311;SDS011;23197;53.912;9.138;2022-12-07T01:44:24;12.33;;;1.03;;
37311;SDS011;23197;53.912;9.138;2022-12-07T01:46:51;3.43;;;0.90;;
37311;SDS011;23197;53.912;9.138;2022-12-07T01:49:24;2.53;;;0.80;;
37311;SDS011;23197;53.912;9.138;2022-12-07T01:52:17;5.10;;;1.20;;
37311;SDS011;23197;53.912;9.138;2022-12-07T01:54:48;4.90;;;1.00;;
37311;SDS011;23197;53.912;9.138;2022-12-07T01:57:17;3.70;;;0.83;;
37311;SDS011;23197;53.912;9.138;2022-12-07T01:59:46;6.50;;;1.40;;
37311;SDS011;23197;53.912;9.138;2022-12-07T02:02:23;5.67;;;1.10;;
37311;SDS011;23197;53.912;9.138;2022-12-07T02:04:53;5.50;;;1.13;;
37311;SDS011;23197;53.912;9.138;2022-12-07T02:07:20;6.67;;;1.13;;
37311;SDS011;23197;53.912;9.138;2022-12-07T02:09:48;7.30;;;1.30;;
37311;SDS011;23197;53.912;9.138;2022-12-07T02:12:14;5.47;;;1.30;;
37311;SDS011;23197;53.912;9.138;2022-12-07T02:14:40;5.50;;;1.60;;
37311;SDS011;23197;53.912;9.138;2022-12-07T02:17:17;4.87;;;1.17;;
37311;SDS011;23197;53.912;9.138;2022-12-07T02:23:14;8.63;;;1.50;;
37311;SDS011;23197;53.912;9.138;2022-12-07T02:28:35;4.13;;;1.43;;
37311;SDS011;23197;53.912;9.138;2022-12-07T02:31:12;5.60;;;1.40;;
37311;SDS011;23197;53.912;9.138;2022-12-07T02:33:50;8.53;;;1.47;;
37311;SDS011;23197;53.912;9.138;2022-12-07T02:36:26;8.57;;;1.30;;
37311;SDS011;23197;53.912;9.138;2022-12-07T02:38:59;4.10;;;1.17;;
37311;SDS011;23197;53.912;9.138;2022-12-07T02:44:02;5.20;;;1.30;;
37311;SDS011;23197;53.912;9.138;2022-12-07T02:46:40;3.93;;;1.10;;
37311;SDS011;23197;53.912;9.138;2022-12-07T02:49:09;4.20;;;1.37;;
37311;SDS011;23197;53.912;9.138;2022-12-07T02:51:38;5.37;;;1.40;;
37311;SDS011;23197;53.912;9.138;2022-12-07T02:54:12;2.93;;;1.27;;
37311;SDS011;23197;53.912;9.138;2022-12-07T02:59:16;6.03;;;1.70;;
37311;SDS011;23197;53.912;9.138;2022-12-07T03:10:27;5.33;;;1.57;;
37311;SDS011;23197;53.912;9.138;2022-12-07T03:13:04;3.40;;;1.40;;
37311;SDS011;23197;53.912;9.138;2022-12-07T03:15:36;3.10;;;1.20;;
37311;SDS011;23197;53.912;9.138;2022-12-07T03:18:34;3.70;;;1.50;;
37311;SDS011;23197;53.912;9.138;2022-12-07T03:21:05;3.80;;;1.30;;
37311;SDS011;23197;53.912;9.138;2022-12-07T03:23:37;4.20;;;1.77;;
37311;SDS011;23197;53.912;9.138;2022-12-07T03:26:05;3.97;;;1.50;;
37311;SDS011;23197;53.912;9.138;2022-12-07T03:28:35;4.63;;;1.80;;
37311;SDS011;23197;53.912;9.138;2022-12-07T03:31:38;5.97;;;1.70;;
37311;SDS011;23197;53.912;9.138;2022-12-07T03:34:22;4.40;;;1.52;;
37311;SDS011;23197;53.912;9.138;2022-12-07T03:36:56;4.47;;;1.97;;
37311;SDS011;23197;53.912;9.138;2022-12-07T03:39:35;4.43;;;1.57;;
37311;SDS011;23197;53.912;9.138;2022-12-07T03:42:05;4.57;;;2.00;;
37311;SDS011;23197;53.912;9.138;2022-12-07T03:44:32;5.20;;;1.67;;
37311;SDS011;23197;53.912;9.138;2022-12-07T03:47:05;4.53;;;1.53;;
37311;SDS011;23197;53.912;9.138;2022-12-07T03:54:55;4.78;;;1.38;;
37311;SDS011;23197;53.912;9.138;2022-12-07T03:57:25;4.47;;;1.67;;
37311;SDS011;23197;53.912;9.138;2022-12-07T03:59:54;4.77;;;1.43;;
37311;SDS011;23197;53.912;9.138;2022-12-07T04:02:21;7.80;;;1.83;;
37311;SDS011;23197;53.912;9.138;2022-12-07T04:04:48;4.47;;;1.70;;
37311;SDS011;23197;53.912;9.138;2022-12-07T04:07:14;5.33;;;1.60;;
37311;SDS011;23197;53.912;9.138;2022-12-07T04:09:40;4.17;;;1.60;;
37311;SDS011;23197;53.912;9.138;2022-12-07T04:12:06;4.03;;;1.70;;
37311;SDS011;23197;53.912;9.138;2022-12-07T04:14:31;3.13;;;1.40;;
37311;SDS011;23197;53.912;9.138;2022-12-07T04:16:57;3.93;;;1.83;;
37311;SDS011;23197;53.912;9.138;2022-12-07T04:19:25;4.10;;;1.40;;
37311;SDS011;23197;53.912;9.138;2022-12-07T04:21:52;5.57;;;1.80;;
37311;SDS011;23197;53.912;9.138;2022-12-07T04:24:17;6.03;;;1.73;;
37311;SDS011;23197;53.912;9.138;2022-12-07T04:26:43;3.97;;;1.67;;
37311;SDS011;23197;53.912;9.138;2022-12-07T04:29:10;3.83;;;1.50;;
37311;SDS011;23197;53.912;9.138;2022-12-07T04:31:36;5.87;;;1.60;;
37311;SDS011;23197;53.912;9.138;2022-12-07T04:34:02;5.87;;;1.63;;
37311;SDS011;23197;53.912;9.138;2022-12-07T04:36:29;6.80;;;1.90;;
37311;SDS011;23197;53.912;9.138;2022-12-07T04:38:55;4.73;;;1.70;;
37311;SDS011;23197;53.912;9.138;2022-12-07T04:41:21;4.17;;;1.97;;
37311;SDS011;23197;53.912;9.138;2022-12-07T04:43:57;5.97;;;1.83;;
37311;SDS011;23197;53.912;9.138;2022-12-07T04:46:25;7.30;;;2.27;;
37311;SDS011;23197;53.912;9.138;2022-12-07T04:48:51;5.17;;;1.60;;
37311;SDS011;23197;53.912;9.138;2022-12-07T04:51:19;6.13;;;1.50;;
37311;SDS011;23197;53.912;9.138;2022-12-07T04:53:47;5.20;;;1.33;;
37311;SDS011;23197;53.912;9.138;2022-12-07T04:56:14;4.87;;;1.20;;
37311;SDS011;23197;53.912;9.138;2022-12-07T04:58:41;2.23;;;0.93;;
37311;SDS011;23197;53.912;9.138;2022-12-07T05:01:07;2.87;;;1.00;;
37311;SDS011;23197;53.912;9.138;2022-12-07T05:03:32;4.03;;;1.00;;
37311;SDS011;23197;53.912;9.138;2022-12-07T05:05:58;2.83;;;0.90;;
37311;SDS011;23197;53.912;9.138;2022-12-07T05:08:23;4.07;;;0.90;;
37311;SDS011;23197;53.912;9.138;2022-12-07T05:10:49;3.20;;;1.00;;
37311;SDS011;23197;53.912;9.138;2022-12-07T05:13:15;6.57;;;1.00;;
37311;SDS011;23197;53.912;9.138;2022-12-07T05:15:40;1.80;;;0.83;;
37311;SDS011;23197;53.912;9.138;2022-12-07T05:18:09;3.13;;;0.83;;
37311;SDS011;23197;53.912;9.138;2022-12-07T05:20:37;3.43;;;0.83;;
37311;SDS011;23197;53.912;9.138;2022-12-07T05:23:03;4.70;;;1.13;;
37311;SDS011;23197;53.912;9.138;2022-12-07T05:25:28;2.33;;;0.73;;
37311;SDS011;23197;53.912;9.138;2022-12-07T05:27:54;5.27;;;1.10;;
37311;SDS011;23197;53.912;9.138;2022-12-07T05:30:21;3.23;;;0.70;;
37311;SDS011;23197;53.912;9.138;2022-12-07T05:32:47;2.37;;;0.90;;
37311;SDS011;23197;53.912;9.138;2022-12-07T05:35:13;6.80;;;1.00;;
37311;SDS011;23197;53.912;9.138;2022-12-07T05:37:38;2.93;;;0.90;;
37311;SDS011;23197;53.912;9.138;2022-12-07T05:40:04;5.60;;;0.97;;
37311;SDS011;23197;53.912;9.138;2022-12-07T05:42:30;3.53;;;0.80;;
37311;SDS011;23197;53.912;9.138;2022-12-07T05:44:56;1.97;;;0.60;;
37311;SDS011;23197;53.912;9.138;2022-12-07T05:47:21;4.60;;;0.70;;
37311;SDS011;23197;53.912;9.138;2022-12-07T05:49:47;4.77;;;0.70;;
37311;SDS011;23197;53.912;9.138;2022-12-07T05:52:12;4.77;;;0.97;;
37311;SDS011;23197;53.912;9.138;2022-12-07T05:54:38;8.47;;;1.80;;
37311;SDS011;23197;53.912;9.138;2022-12-07T05:57:03;8.20;;;2.30;;
37311;SDS011;23197;53.912;9.138;2022-12-07T05:59:29;7.10;;;2.80;;
37311;SDS011;23197;53.912;9.138;2022-12-07T06:02:14;6.43;;;1.83;;
37311;SDS011;23197;53.912;9.138;2022-12-07T06:04:41;3.47;;;1.50;;
37311;SDS011;23197;53.912;9.138;2022-12-07T06:07:08;4.13;;;1.10;;
37311;SDS011;23197;53.912;9.138;2022-12-07T06:09:34;4.13;;;1.13;;
37311;SDS011;23197;53.912;9.138;2022-12-07T06:12:00;5.57;;;1.20;;
37311;SDS011;23197;53.912;9.138;2022-12-07T06:14:45;2.77;;;1.10;;
37311;SDS011;23197;53.912;9.138;2022-12-07T06:17:11;5.17;;;1.50;;
37311;SDS011;23197;53.912;9.138;2022-12-07T06:19:37;5.47;;;1.40;;
37311;SDS011;23197;53.912;9.138;2022-12-07T06:22:03;3.20;;;1.27;;
37311;SDS011;23197;53.912;9.138;2022-12-07T06:24:30;6.60;;;1.43;;
37311;SDS011;23197;53.912;9.138;2022-12-07T06:26:58;4.83;;;1.10;;
37311;SDS011;23197;53.912;9.138;2022-12-07T06:29:24;3.17;;;0.80;;
37311;SDS011;23197;53.912;9.138;2022-12-07T06:31:50;3.83;;;0.67;;
37311;SDS011;23197;53.912;9.138;2022-12-07T06:34:16;2.90;;;0.77;;
37311;SDS011;23197;53.912;9.138;2022-12-07T06:36:43;4.50;;;0.83;;
37311;SDS011;23197;53.912;9.138;2022-12-07T06:39:09;3.20;;;1.30;;
37311;SDS011;23197;53.912;9.138;2022-12-07T06:41:36;4.40;;;1.13;;
37311;SDS011;23197;53.912;9.138;2022-12-07T06:44:02;7.83;;;1.70;;
37311;SDS011;23197;53.912;9.138;2022-12-07T06:46:28;6.13;;;1.97;;
37311;SDS011;23197;53.912;9.138;2022-12-07T06:48:54;5.80;;;2.53;;
37311;SDS011;23197;53.912;9.138;2022-12-07T06:51:19;10.53;;;2.00;;
37311;SDS011;23197;53.912;9.138;2022-12-07T06:53:45;4.97;;;1.40;;
37311;SDS011;23197;53.912;9.138;2022-12-07T06:56:10;7.83;;;1.17;;
37311;SDS011;23197;53.912;9.138;2022-12-07T06:58:36;7.77;;;1.90;;
37311;SDS011;23197;53.912;9.138;2022-12-07T07:01:02;6.07;;;1.33;;
37311;SDS011;23197;53.912;9.138;2022-12-07T07:03:28;10.83;;;1.50;;
37311;SDS011;23197;53.912;9.138;2022-12-07T07:05:53;7.23;;;1.20;;
37311;SDS011;23197;53.912;9.138;2022-12-07T07:08:19;14.67;;;2.77;;
37311;SDS011;23197;53.912;9.138;2022-12-07T07:10:44;7.37;;;2.50;;
37311;SDS011;23197;53.912;9.138;2022-12-07T07:13:10;8.30;;;1.80;;
37311;SDS011;23197;53.912;9.138;2022-12-07T07:15:37;9.00;;;1.80;;
37311;SDS011;23197;53.912;9.138;2022-12-07T07:18:03;7.07;;;2.07;;
37311;SDS011;23197;53.912;9.138;2022-12-07T07:20:29;4.73;;;1.50;;
37311;SDS011;23197;53.912;9.138;2022-12-07T07:22:54;8.40;;;2.00;;
37311;SDS011;23197;53.912;9.138;2022-12-07T07:25:21;7.90;;;1.63;;
37311;SDS011;23197;53.912;9.138;2022-12-07T07:27:46;6.47;;;1.50;;
37311;SDS011;23197;53.912;9.138;2022-12-07T07:30:12;4.90;;;1.20;;
37311;SDS011;23197;53.912;9.138;2022-12-07T07:32:38;5.87;;;1.23;;
37311;SDS011;23197;53.912;9.138;2022-12-07T07:35:03;8.27;;;1.60;;
37311;SDS011;23197;53.912;9.138;2022-12-07T07:37:29;8.27;;;1.40;;
37311;SDS011;23197;53.912;9.138;2022-12-07T07:39:55;9.33;;;1.67;;
37311;SDS011;23197;53.912;9.138;2022-12-07T07:42:20;8.07;;;1.40;;
37311;SDS011;23197;53.912;9.138;2022-12-07T07:44:46;7.83;;;1.73;;
37311;SDS011;23197;53.912;9.138;2022-12-07T07:47:14;6.27;;;1.53;;
37311;SDS011;23197;53.912;9.138;2022-12-07T07:49:39;15.17;;;2.30;;
37311;SDS011;23197;53.912;9.138;2022-12-07T07:52:05;8.90;;;1.90;;
37311;SDS011;23197;53.912;9.138;2022-12-07T07:54:31;5.83;;;1.67;;
37311;SDS011;23197;53.912;9.138;2022-12-07T07:56:57;7.23;;;1.87;;
37311;SDS011;23197;53.912;9.138;2022-12-07T07:59:23;2.97;;;1.30;;
37311;SDS011;23197;53.912;9.138;2022-12-07T08:01:49;5.20;;;1.40;;
37311;SDS011;23197;53.912;9.138;2022-12-07T08:04:15;6.53;;;1.30;;
37311;SDS011;23197;53.912;9.138;2022-12-07T08:06:41;9.03;;;1.70;;
37311;SDS011;23197;53.912;9.138;2022-12-07T08:09:07;7.67;;;2.37;;
37311;SDS011;23197;53.912;9.138;2022-12-07T08:11:34;12.23;;;3.30;;
37311;SDS011;23197;53.912;9.138;2022-12-07T08:14:01;8.50;;;2.57;;
37311;SDS011;23197;53.912;9.138;2022-12-07T08:16:26;7.70;;;2.23;;
37311;SDS011;23197;53.912;9.138;2022-12-07T08:18:52;6.27;;;1.53;;
37311;SDS011;23197;53.912;9.138;2022-12-07T08:21:17;6.30;;;1.40;;
37311;SDS011;23197;53.912;9.138;2022-12-07T08:23:43;4.60;;;1.10;;
37311;SDS011;23197;53.912;9.138;2022-12-07T08:26:10;10.37;;;1.43;;
37311;SDS011;23197;53.912;9.138;2022-12-07T08:28:37;8.50;;;1.60;;
37311;SDS011;23197;53.912;9.138;2022-12-07T08:31:08;6.67;;;1.67;;
37311;SDS011;23197;53.912;9.138;2022-12-07T08:33:36;3.67;;;1.57;;
37311;SDS011;23197;53.912;9.138;2022-12-07T08:36:06;9.33;;;1.53;;
37311;SDS011;23197;53.912;9.138;2022-12-07T08:38:34;10.03;;;1.10;;
37311;SDS011;23197;53.912;9.138;2022-12-07T08:41:00;4.30;;;0.93;;
37311;SDS011;23197;53.912;9.138;2022-12-07T08:43:26;8.13;;;1.10;;
37311;SDS011;23197;53.912;9.138;2022-12-07T08:46:12;3.63;;;1.00;;
37311;SDS011;23197;53.912;9.138;2022-12-07T08:48:45;10.90;;;1.73;;
37311;SDS011;23197;53.912;9.138;2022-12-07T08:51:14;6.20;;;1.60;;
37311;SDS011;23197;53.912;9.138;2022-12-07T08:53:40;9.40;;;1.50;;
37311;SDS011;23197;53.912;9.138;2022-12-07T08:56:07;4.27;;;0.93;;
37311;SDS011;23197;53.912;9.138;2022-12-07T08:58:34;5.33;;;1.10;;
37311;SDS011;23197;53.912;9.138;2022-12-07T09:01:01;4.40;;;0.90;;
37311;SDS011;23197;53.912;9.138;2022-12-07T09:03:26;6.57;;;1.00;;
37311;SDS011;23197;53.912;9.138;2022-12-07T09:05:52;4.47;;;0.90;;
37311;SDS011;23197;53.912;9.138;2022-12-07T09:08:18;6.87;;;1.17;;
37311;SDS011;23197;53.912;9.138;2022-12-07T09:10:44;4.50;;;0.63;;
37311;SDS011;23197;53.912;9.138;2022-12-07T09:13:10;8.27;;;1.30;;
37311;SDS011;23197;53.912;9.138;2022-12-07T09:15:36;9.17;;;1.50;;
37311;SDS011;23197;53.912;9.138;2022-12-07T09:18:01;5.90;;;1.03;;
37311;SDS011;23197;53.912;9.138;2022-12-07T09:20:27;8.80;;;1.40;;
37311;SDS011;23197;53.912;9.138;2022-12-07T09:22:52;11.90;;;1.50;;
37311;SDS011;23197;53.912;9.138;2022-12-07T09:25:17;5.83;;;1.50;;
37311;SDS011;23197;53.912;9.138;2022-12-07T09:27:43;6.53;;;1.20;;
37311;SDS011;23197;53.912;9.138;2022-12-07T09:30:08;9.97;;;1.63;;
37311;SDS011;23197;53.912;9.138;2022-12-07T09:32:34;8.80;;;1.20;;
37311;SDS011;23197;53.912;9.138;2022-12-07T09:35:00;9.27;;;1.30;;
37311;SDS011;23197;53.912;9.138;2022-12-07T09:37:25;4.13;;;1.00;;
37311;SDS011;23197;53.912;9.138;2022-12-07T09:39:51;6.30;;;0.87;;
37311;SDS011;23197;53.912;9.138;2022-12-07T09:42:36;4.57;;;0.80;;
37311;SDS011;23197;53.912;9.138;2022-12-07T09:45:17;5.07;;;1.00;;
37311;SDS011;23197;53.912;9.138;2022-12-07T09:48:04;6.03;;;0.90;;
37311;SDS011;23197;53.912;9.138;2022-12-07T09:50:30;1.93;;;0.60;;
37311;SDS011;23197;53.912;9.138;2022-12-07T09:53:03;4.33;;;0.73;;
37311;SDS011;23197;53.912;9.138;2022-12-07T09:55:38;8.63;;;1.17;;
37311;SDS011;23197;53.912;9.138;2022-12-07T09:58:05;7.03;;;1.40;;
37311;SDS011;23197;53.912;9.138;2022-12-07T10:00:30;5.83;;;1.40;;
37311;SDS011;23197;53.912;9.138;2022-12-07T10:02:59;6.83;;;1.30;;
37311;SDS011;23197;53.912;9.138;2022-12-07T10:05:34;8.80;;;1.50;;
37311;SDS011;23197;53.912;9.138;2022-12-07T10:08:03;5.27;;;1.50;;
37311;SDS011;23197;53.912;9.138;2022-12-07T10:10:31;7.73;;;1.57;;
37311;SDS011;23197;53.912;9.138;2022-12-07T10:18:30;7.87;;;2.00;;
37311;SDS011;23197;53.912;9.138;2022-12-07T10:21:00;7.07;;;1.73;;
37311;SDS011;23197;53.912;9.138;2022-12-07T10:23:28;9.67;;;1.90;;
37311;SDS011;23197;53.912;9.138;2022-12-07T10:25:54;11.10;;;2.13;;
37311;SDS011;23197;53.912;9.138;2022-12-07T10:28:20;7.47;;;1.63;;
37311;SDS011;23197;53.912;9.138;2022-12-07T10:35:53;9.73;;;1.60;;
37311;SDS011;23197;53.912;9.138;2022-12-07T10:38:19;10.73;;;1.60;;
37311;SDS011;23197;53.912;9.138;2022-12-07T10:40:45;7.87;;;1.83;;
37311;SDS011;23197;53.912;9.138;2022-12-07T10:45:41;11.20;;;1.50;;
37311;SDS011;23197;53.912;9.138;2022-12-07T10:48:48;5.03;;;1.53;;
37311;SDS011;23197;53.912;9.138;2022-12-07T10:51:18;6.73;;;1.30;;
37311;SDS011;23197;53.912;9.138;2022-12-07T10:53:56;5.37;;;1.10;;
37311;SDS011;23197;53.912;9.138;2022-12-07T11:07:18;9.57;;;1.23;;
37311;SDS011;23197;53.912;9.138;2022-12-07T11:18:05;9.70;;;1.37;;
37311;SDS011;23197;53.912;9.138;2022-12-07T11:34:34;6.37;;;1.17;;
37311;SDS011;23197;53.912;9.138;2022-12-07T11:37:06;4.57;;;1.00;;
37311;SDS011;23197;53.912;9.138;2022-12-07T11:39:50;4.45;;;0.90;;
37311;SDS011;23197;53.912;9.138;2022-12-07T11:42:40;3.17;;;0.67;;
37311;SDS011;23197;53.912;9.138;2022-12-07T11:45:15;6.90;;;1.30;;
37311;SDS011;23197;53.912;9.138;2022-12-07T11:47:54;8.67;;;1.33;;
37311;SDS011;23197;53.912;9.138;2022-12-07T11:53:19;5.30;;;0.80;;
37311;SDS011;23197;53.912;9.138;2022-12-07T12:06:34;6.03;;;1.20;;
37311;SDS011;23197;53.912;9.138;2022-12-07T12:09:03;5.10;;;0.70;;
37311;SDS011;23197;53.912;9.138;2022-12-07T12:11:39;4.47;;;0.90;;
37311;SDS011;23197;53.912;9.138;2022-12-07T12:14:30;4.70;;;0.90;;
37311;SDS011;23197;53.912;9.138;2022-12-07T12:22:59;9.60;;;0.90;;
37311;SDS011;23197;53.912;9.138;2022-12-07T12:28:02;3.03;;;0.63;;
37311;SDS011;23197;53.912;9.138;2022-12-07T12:30:34;3.90;;;0.60;;
37311;SDS011;23197;53.912;9.138;2022-12-07T12:33:05;7.03;;;0.77;;
37311;SDS011;23197;53.912;9.138;2022-12-07T12:35:37;4.13;;;0.60;;
37311;SDS011;23197;53.912;9.138;2022-12-07T12:40:52;3.90;;;0.60;;
37311;SDS011;23197;53.912;9.138;2022-12-07T12:46:51;4.33;;;0.80;;
37311;SDS011;23197;53.912;9.138;2022-12-07T12:51:41;3.73;;;0.67;;
37311;SDS011;23197;53.912;9.138;2022-12-07T12:54:14;1.70;;;0.60;;
37311;SDS011;23197;53.912;9.138;2022-12-07T12:56:46;10.17;;;1.60;;
37311;SDS011;23197;53.912;9.138;2022-12-07T12:59:24;7.17;;;1.50;;
37311;SDS011;23197;53.912;9.138;2022-12-07T13:02:45;3.73;;;1.20;;
37311;SDS011;23197;53.912;9.138;2022-12-07T13:04:52;7.67;;;1.00;;
37311;SDS011;23197;53.912;9.138;2022-12-07T13:28:43;16.10;;;5.00;;
37311;SDS011;23197;53.912;9.138;2022-12-07T13:33:51;9.57;;;3.43;;
37311;SDS011;23197;53.912;9.138;2022-12-07T13:36:18;8.53;;;2.83;;
37311;SDS011;23197;53.912;9.138;2022-12-07T13:38:59;8.37;;;2.13;;
37311;SDS011;23197;53.912;9.138;2022-12-07T13:41:35;4.43;;;1.10;;
37311;SDS011;23197;53.912;9.138;2022-12-07T13:44:14;9.20;;;1.40;;
37311;SDS011;23197;53.912;9.138;2022-12-07T13:46:46;4.60;;;1.10;;
37311;SDS011;23197;53.912;9.138;2022-12-07T13:49:20;3.30;;;0.90;;
37311;SDS011;23197;53.912;9.138;2022-12-07T13:51:48;4.47;;;1.00;;
37311;SDS011;23197;53.912;9.138;2022-12-07T13:54:14;4.00;;;0.67;;
37311;SDS011;23197;53.912;9.138;2022-12-07T13:56:40;5.33;;;0.90;;
37311;SDS011;23197;53.912;9.138;2022-12-07T13:59:12;3.60;;;0.60;;
37311;SDS011;23197;53.912;9.138;2022-12-07T14:01:41;3.60;;;0.70;;
37311;SDS011;23197;53.912;9.138;2022-12-07T14:04:17;4.60;;;0.93;;
37311;SDS011;23197;53.912;9.138;2022-12-07T14:06:55;3.87;;;0.70;;
37311;SDS011;23197;53.912;9.138;2022-12-07T14:09:21;3.00;;;0.70;;
37311;SDS011;23197;53.912;9.138;2022-12-07T14:11:49;2.97;;;0.60;;
37311;SDS011;23197;53.912;9.138;2022-12-07T14:14:18;5.67;;;1.00;;
37311;SDS011;23197;53.912;9.138;2022-12-07T14:19:42;4.00;;;0.80;;
37311;SDS011;23197;53.912;9.138;2022-12-07T14:22:53;4.50;;;1.53;;
37311;SDS011;23197;53.912;9.138;2022-12-07T14:27:39;2.13;;;0.57;;
37311;SDS011;23197;53.912;9.138;2022-12-07T14:30:16;3.15;;;0.80;;
37311;SDS011;23197;53.912;9.138;2022-12-07T14:32:43;5.97;;;0.83;;
37311;SDS011;23197;53.912;9.138;2022-12-07T14:35:14;5.63;;;1.00;;
37311;SDS011;23197;53.912;9.138;2022-12-07T14:37:43;2.73;;;0.87;;
37311;SDS011;23197;53.912;9.138;2022-12-07T14:40:18;3.83;;;1.00;;
37311;SDS011;23197;53.912;9.138;2022-12-07T14:42:50;7.53;;;3.47;;
37311;SDS011;23197;53.912;9.138;2022-12-07T14:45:20;6.77;;;2.63;;
37311;SDS011;23197;53.912;9.138;2022-12-07T14:47:47;7.63;;;2.10;;
37311;SDS011;23197;53.912;9.138;2022-12-07T14:50:13;7.73;;;1.83;;
37311;SDS011;23197;53.912;9.138;2022-12-07T14:52:41;8.30;;;1.90;;
37311;SDS011;23197;53.912;9.138;2022-12-07T14:55:12;5.47;;;1.67;;
37311;SDS011;23197;53.912;9.138;2022-12-07T14:57:54;4.73;;;1.40;;
37311;SDS011;23197;53.912;9.138;2022-12-07T15:00:22;3.50;;;1.33;;
37311;SDS011;23197;53.912;9.138;2022-12-07T15:02:49;3.80;;;1.50;;
37311;SDS011;23197;53.912;9.138;2022-12-07T15:05:15;7.90;;;2.10;;
37311;SDS011;23197;53.912;9.138;2022-12-07T15:07:41;3.87;;;1.33;;
37311;SDS011;23197;53.912;9.138;2022-12-07T15:10:23;3.70;;;1.40;;
37311;SDS011;23197;53.912;9.138;2022-12-07T15:12:55;4.17;;;1.20;;
37311;SDS011;23197;53.912;9.138;2022-12-07T15:16:09;3.40;;;1.20;;
37311;SDS011;23197;53.912;9.138;2022-12-07T15:18:38;4.37;;;1.30;;
37311;SDS011;23197;53.912;9.138;2022-12-07T15:21:03;4.17;;;1.27;;
37311;SDS011;23197;53.912;9.138;2022-12-07T15:23:29;5.93;;;1.60;;
37311;SDS011;23197;53.912;9.138;2022-12-07T15:25:54;4.83;;;1.50;;
37311;SDS011;23197;53.912;9.138;2022-12-07T15:28:20;5.60;;;1.50;;
37311;SDS011;23197;53.912;9.138;2022-12-07T15:30:45;3.40;;;1.50;;
37311;SDS011;23197;53.912;9.138;2022-12-07T15:33:11;4.13;;;1.40;;
37311;SDS011;23197;53.912;9.138;2022-12-07T15:35:42;4.17;;;1.37;;
37311;SDS011;23197;53.912;9.138;2022-12-07T15:38:08;3.80;;;1.40;;
37311;SDS011;23197;53.912;9.138;2022-12-07T15:40:34;4.77;;;1.67;;
37311;SDS011;23197;53.912;9.138;2022-12-07T15:43:00;4.83;;;1.80;;
37311;SDS011;23197;53.912;9.138;2022-12-07T15:45:26;4.50;;;2.07;;
37311;SDS011;23197;53.912;9.138;2022-12-07T15:47:52;4.87;;;1.93;;
37311;SDS011;23197;53.912;9.138;2022-12-07T15:50:17;10.10;;;2.57;;
37311;SDS011;23197;53.912;9.138;2022-12-07T15:52:43;5.63;;;2.43;;
37311;SDS011;23197;53.912;9.138;2022-12-07T15:55:09;6.93;;;2.70;;
37311;SDS011;23197;53.912;9.138;2022-12-07T15:57:35;8.63;;;3.13;;
37311;SDS011;23197;53.912;9.138;2022-12-07T16:00:03;14.40;;;5.87;;
37311;SDS011;23197;53.912;9.138;2022-12-07T16:02:30;14.20;;;5.93;;
37311;SDS011;23197;53.912;9.138;2022-12-07T16:04:55;8.47;;;4.00;;
37311;SDS011;23197;53.912;9.138;2022-12-07T16:07:20;11.77;;;3.87;;
37311;SDS011;23197;53.912;9.138;2022-12-07T16:09:46;11.23;;;4.67;;
37311;SDS011;23197;53.912;9.138;2022-12-07T16:12:12;11.60;;;5.00;;
37311;SDS011;23197;53.912;9.138;2022-12-07T16:14:39;11.07;;;4.80;;
37311;SDS011;23197;53.912;9.138;2022-12-07T16:17:05;10.73;;;5.27;;
37311;SDS011;23197;53.912;9.138;2022-12-07T16:19:32;13.33;;;5.20;;
37311;SDS011;23197;53.912;9.138;2022-12-07T16:21:58;11.50;;;5.23;;
37311;SDS011;23197;53.912;9.138;2022-12-07T16:24:24;13.17;;;5.80;;
37311;SDS011;23197;53.912;9.138;2022-12-07T16:26:50;19.13;;;8.53;;
37311;SDS011;23197;53.912;9.138;2022-12-07T16:29:16;15.80;;;7.83;;
37311;SDS011;23197;53.912;9.138;2022-12-07T16:31:44;16.00;;;7.93;;
37311;SDS011;23197;53.912;9.138;2022-12-07T16:34:09;23.80;;;10.43;;
37311;SDS011;23197;53.912;9.138;2022-12-07T16:36:35;20.10;;;8.97;;
37311;SDS011;23197;53.912;9.138;2022-12-07T16:39:01;21.67;;;10.37;;
37311;SDS011;23197;53.912;9.138;2022-12-07T16:41:27;17.93;;;9.37;;
37311;SDS011;23197;53.912;9.138;2022-12-07T16:43:53;18.53;;;9.50;;
37311;SDS011;23197;53.912;9.138;2022-12-07T16:46:19;27.53;;;13.83;;
37311;SDS011;23197;53.912;9.138;2022-12-07T16:48:44;23.03;;;11.67;;
37311;SDS011;23197;53.912;9.138;2022-12-07T16:51:11;20.07;;;9.90;;
37311;SDS011;23197;53.912;9.138;2022-12-07T16:53:38;24.80;;;10.00;;
37311;SDS011;23197;53.912;9.138;2022-12-07T16:56:09;18.77;;;9.53;;
37311;SDS011;23197;53.912;9.138;2022-12-07T16:58:36;23.60;;;10.00;;
37311;SDS011;23197;53.912;9.138;2022-12-07T17:01:36;18.83;;;10.27;;
37311;SDS011;23197;53.912;9.138;2022-12-07T17:03:54;20.37;;;9.93;;
37311;SDS011;23197;53.912;9.138;2022-12-07T17:06:22;21.07;;;10.47;;
37311;SDS011;23197;53.912;9.138;2022-12-07T17:08:49;22.80;;;10.97;;